Terminal Aerodrome Forecast
Issued by NWS

Home | Current Version | Previous Version | Text Only | Print | Product List | Glossary Off
Versions: 1 2 3 4 5 6 7 8 9 10 11 12 13

000
FTUS43 KICT 201120 AAA
TAFSLN
TAF AMD
KSLN 201120Z 2011/2106 07009KT P6SM BKN120
     FM201400 15009KT P6SM SCT070
     FM201700 19014G20KT P6SM SCT070=

USA.gov is the U.S. government's official web portal to all federal, state and local government web resources and services.